LFBE/EGC METAR and TAF weather

Enter ICAO airport designator
Station Type Date Time Source
LFBE METAR 2019/06/17 15:00 UTC NOAA

LFBE 171500Z AUTO VRB03KT CAVOK 29/15 Q1014 NOSIG


Station Type Date Time Source
LFBE Decoded METAR 2019/06/17 15:00 UTC NOAA

Bergerac, France (LFBE) 44-49N 000-31E 52M
Jun 17, 2019 - 11:00 AM EDT / 2019.06.17 1500 UTC
Wind: Variable at 3 MPH (3 KT):0
Visibility: greater than 7 mile(s):0
Temperature: 84 F (29 C)
Dew Point: 59 F (15 C)
Relative Humidity: 42%
Pressure (altimeter): 29.94 in. Hg (1014 hPa)
ob: LFBE 171500Z AUTO VRB03KT CAVOK 29/15 Q1014 NOSIG
cycle: 15

Station Type Date Time Source
LFBE TAF 2019/06/17 12:21 UTC NOAA

TAF TAF LFBE 171100Z 1712/1812 VRB02KT CAVOK PROB30
TEMPO 1804/1806 -SHRA BKN120TCU
BECMG 1806/1808 15010KT

Example: see airport list